Time;durP1;ratioP1;P1;durP2;ratioP2;P2;SDS_P1;SDS_P2;PMS_P1;PMS_P2;Temp;Humidity;BMP_temperature;BMP_pressure;BME280_temperature;BME280_humidity;BME280_pressure;Samples;Min_cycle;Max_cycle;Signal;HPM_P1;HPM_P2
2023/08/01 00:00:39;;;;;;;8.27;3.75;;;16.50;99.90;;;;;;5091959;28;20047;-63
2023/08/01 00:03:05;;;;;;;9.43;4.07;;;16.40;99.90;;;;;;5093643;28;20044;-63
2023/08/01 00:05:31;;;;;;;12.43;4.22;;;16.40;99.90;;;;;;5093212;28;20533;-63
2023/08/01 00:07:57;;;;;;;14.20;3.72;;;16.40;99.90;;;;;;5125069;27;20542;-63
2023/08/01 00:10:22;;;;;;;8.95;3.63;;;16.40;99.90;;;;;;5126049;27;20040;-63
2023/08/01 00:12:48;;;;;;;12.10;3.42;;;16.40;99.90;;;;;;5125601;27;20044;-63
2023/08/01 00:15:14;;;;;;;10.43;3.70;;;16.40;99.90;;;;;;5091176;28;20044;-63
2023/08/01 00:17:39;;;;;;;10.55;3.28;;;16.30;99.90;;;;;;5105218;28;20400;-63
2023/08/01 00:20:07;;;;;;;12.80;4.22;;;16.30;99.90;;;;;;5071729;28;20048;-63
2023/08/01 00:22:33;;;;;;;8.13;2.92;;;16.40;99.90;;;;;;5071978;28;20045;-63
2023/08/01 00:24:58;;;;;;;9.50;3.30;;;16.30;99.90;;;;;;5072496;28;20417;-63
2023/08/01 00:27:24;;;;;;;9.20;3.30;;;16.30;99.90;;;;;;5072610;28;20041;-63
2023/08/01 00:29:50;;;;;;;9.52;3.35;;;16.20;99.90;;;;;;5070306;28;20450;-63
2023/08/01 00:32:15;;;;;;;10.93;4.03;;;16.20;99.90;;;;;;5088292;28;20033;-63
2023/08/01 00:34:41;;;;;;;8.73;3.63;;;16.20;99.90;;;;;;5072010;28;20041;-63
2023/08/01 00:37:07;;;;;;;8.43;3.10;;;16.10;99.90;;;;;;5070746;28;20048;-63
2023/08/01 00:39:32;;;;;;;8.55;3.67;;;16.10;99.90;;;;;;5072349;28;20035;-63
2023/08/01 00:41:59;;;;;;;10.88;3.85;;;16.10;99.90;;;;;;5071475;28;20129;-63
2023/08/01 00:44:25;;;;;;;10.90;3.60;;;16.10;99.90;;;;;;5113764;27;20469;-63
2023/08/01 00:46:50;;;;;;;8.48;3.28;;;16.00;99.90;;;;;;5090950;28;20108;-63
2023/08/01 00:49:16;;;;;;;14.07;4.10;;;15.90;99.90;;;;;;5092061;28;20118;-63
2023/08/01 00:51:43;;;;;;;7.57;3.63;;;15.90;99.90;;;;;;5091765;28;20051;-63
2023/08/01 00:54:09;;;;;;;9.27;3.55;;;15.90;99.90;;;;;;5092524;28;20036;-63
2023/08/01 00:56:36;;;;;;;10.15;4.30;;;15.80;99.90;;;;;;5091391;28;20113;-63
2023/08/01 00:59:02;;;;;;;10.13;3.60;;;15.80;99.90;;;;;;5092520;28;20044;-63
2023/08/01 01:01:28;;;;;;;10.95;4.55;;;15.70;99.90;;;;;;5092286;28;20046;-63
2023/08/01 01:03:54;;;;;;;12.15;3.20;;;15.70;99.90;;;;;;5089997;28;20044;-63
2023/08/01 01:06:43;;;;;;;12.68;3.90;;;15.60;99.90;;;;;;5091144;28;20071;-63
2023/08/01 01:09:16;;;;;;;8.20;3.20;;;15.70;99.90;;;;;;5092321;28;20051;-63
2023/08/01 01:11:42;;;;;;;10.80;3.25;;;15.60;99.90;;;;;;5087962;28;20044;-63
2023/08/01 01:14:08;;;;;;;13.93;3.50;;;15.60;99.90;;;;;;5091072;28;20039;-63
2023/08/01 01:16:33;;;;;;;9.85;4.20;;;15.50;99.90;;;;;;5107975;28;20117;-63
2023/08/01 01:18:59;;;;;;;6.70;3.10;;;15.50;99.90;;;;;;5091336;28;20083;-63
2023/08/01 01:21:25;;;;;;;10.48;3.95;;;15.50;99.90;;;;;;5091073;28;20036;-63
2023/08/01 01:23:51;;;;;;;13.65;3.95;;;15.50;99.90;;;;;;5091701;28;20036;-63
2023/08/01 01:26:21;;;;;;;9.70;3.97;;;15.50;99.90;;;;;;5091591;28;20404;-63
2023/08/01 01:28:49;;;;;;;12.07;5.05;;;15.50;99.90;;;;;;5090470;28;20094;-63
2023/08/01 01:31:16;;;;;;;9.80;4.35;;;15.40;99.90;;;;;;5088939;28;20038;-63
2023/08/01 01:33:42;;;;;;;9.95;4.55;;;15.40;99.90;;;;;;5090482;28;20493;-63
2023/08/01 01:36:08;;;;;;;11.85;3.88;;;15.40;99.90;;;;;;5092271;28;20047;-63
2023/08/01 01:38:34;;;;;;;11.65;4.25;;;15.30;99.90;;;;;;5088295;28;20385;-63
2023/08/01 01:40:59;;;;;;;9.95;4.15;;;15.40;99.90;;;;;;5091851;28;20515;-63
2023/08/01 01:43:25;;;;;;;8.23;4.28;;;15.30;99.90;;;;;;5090886;28;20127;-63
2023/08/01 01:45:50;;;;;;;11.73;4.18;;;15.30;99.90;;;;;;5072599;28;20040;-63
2023/08/01 01:48:16;;;;;;;12.13;4.05;;;15.20;99.90;;;;;;5090516;28;20044;-63
2023/08/01 01:50:42;;;;;;;9.77;4.05;;;15.30;99.90;;;;;;5091148;28;20409;-63
2023/08/01 01:53:07;;;;;;;13.40;3.83;;;15.20;99.90;;;;;;5090207;28;20062;-63
2023/08/01 01:55:34;;;;;;;11.13;4.57;;;15.20;99.90;;;;;;5124735;28;20071;-63
2023/08/01 01:58:00;;;;;;;14.15;5.55;;;15.20;99.90;;;;;;5091913;28;20055;-63
2023/08/01 02:00:25;;;;;;;10.07;4.28;;;15.20;99.90;;;;;;5091220;28;20434;-63
2023/08/01 02:02:51;;;;;;;8.75;4.18;;;15.10;99.90;;;;;;5091403;28;20485;-63
2023/08/01 02:05:17;;;;;;;10.18;4.47;;;15.10;99.90;;;;;;5090817;28;20077;-63
2023/08/01 02:07:42;;;;;;;11.85;4.40;;;15.20;99.90;;;;;;5090504;28;20040;-63
2023/08/01 02:10:09;;;;;;;12.52;4.97;;;15.20;99.90;;;;;;5090350;28;20048;-63
2023/08/01 02:12:35;;;;;;;9.18;4.32;;;15.10;99.90;;;;;;5090269;28;20119;-63
2023/08/01 02:15:01;;;;;;;10.23;4.53;;;15.10;99.90;;;;;;5090730;28;20211;-63
2023/08/01 02:17:27;;;;;;;13.02;4.70;;;15.10;99.90;;;;;;5090668;28;20040;-63
2023/08/01 02:19:53;;;;;;;11.05;4.40;;;15.10;99.90;;;;;;5090259;28;20043;-63
2023/08/01 02:22:18;;;;;;;9.68;4.70;;;15.10;99.90;;;;;;5125026;27;20044;-63
2023/08/01 02:24:44;;;;;;;11.75;4.18;;;15.10;99.90;;;;;;5093614;28;20392;-63
2023/08/01 02:27:10;;;;;;;10.13;4.63;;;15.20;99.90;;;;;;5095441;28;20096;-63
2023/08/01 02:29:35;;;;;;;10.98;4.75;;;15.10;99.90;;;;;;5094379;28;20055;-62
2023/08/01 02:32:01;;;;;;;8.88;4.53;;;15.20;99.90;;;;;;5095162;28;20358;-63
2023/08/01 02:34:27;;;;;;;10.73;5.68;;;15.20;99.90;;;;;;5075252;28;20032;-63
2023/08/01 02:36:53;;;;;;;10.93;4.57;;;15.10;99.90;;;;;;5094978;28;20473;-63
2023/08/01 02:39:18;;;;;;;13.27;6.10;;;15.10;99.90;;;;;;5128307;27;20047;-63
2023/08/01 02:41:44;;;;;;;15.25;6.15;;;15.10;99.90;;;;;;5093579;28;20366;-63
2023/08/01 02:44:10;;;;;;;12.20;5.63;;;15.10;99.90;;;;;;5095100;28;20078;-63
2023/08/01 02:46:35;;;;;;;9.82;5.22;;;15.10;99.90;;;;;;5127575;27;20173;-63
2023/08/01 02:49:01;;;;;;;10.05;5.38;;;15.10;99.90;;;;;;5093771;28;20040;-63
2023/08/01 02:51:27;;;;;;;13.80;5.75;;;15.10;99.90;;;;;;5094696;28;20055;-63
2023/08/01 02:53:52;;;;;;;10.95;5.15;;;15.10;99.90;;;;;;5093518;28;20127;-63
2023/08/01 02:56:18;;;;;;;11.13;4.47;;;15.10;99.90;;;;;;5092923;28;20504;-63
2023/08/01 02:58:44;;;;;;;11.07;5.07;;;15.10;99.90;;;;;;5094265;28;20035;-63
2023/08/01 03:01:10;;;;;;;8.93;4.15;;;15.00;99.90;;;;;;5116666;27;20496;-63
2023/08/01 03:03:36;;;;;;;10.25;4.18;;;15.10;99.90;;;;;;5089568;28;20071;-63
2023/08/01 03:06:02;;;;;;;9.93;3.50;;;15.10;99.90;;;;;;5094429;28;20105;-63
2023/08/01 03:08:28;;;;;;;8.75;3.40;;;15.10;99.90;;;;;;5092961;28;20048;-63
2023/08/01 03:10:54;;;;;;;10.63;3.83;;;15.20;99.90;;;;;;5093566;28;20050;-63
2023/08/01 03:13:21;;;;;;;12.68;3.88;;;15.20;99.90;;;;;;5094408;28;20032;-63
2023/08/01 03:15:46;;;;;;;10.82;3.38;;;15.20;99.90;;;;;;5093830;28;20470;-63
2023/08/01 03:18:12;;;;;;;9.82;3.40;;;15.30;99.90;;;;;;5092586;28;20124;-63
2023/08/01 03:20:38;;;;;;;9.65;2.67;;;15.20;99.90;;;;;;5093299;28;20477;-63
2023/08/01 03:23:04;;;;;;;7.13;2.67;;;15.20;99.90;;;;;;5092122;28;20123;-63
2023/08/01 03:25:30;;;;;;;9.30;2.95;;;15.20;99.90;;;;;;5091986;28;20123;-63
2023/08/01 03:27:56;;;;;;;7.90;2.40;;;15.20;99.90;;;;;;5126952;27;20087;-63
2023/08/01 03:30:22;;;;;;;5.82;2.30;;;15.20;99.90;;;;;;5094048;28;20032;-63
2023/08/01 03:32:48;;;;;;;6.43;2.08;;;15.20;99.90;;;;;;5092421;28;20119;-63
2023/08/01 03:35:14;;;;;;;7.63;1.90;;;15.20;99.90;;;;;;5126083;27;20043;-63
2023/08/01 03:37:42;;;;;;;12.43;2.92;;;15.10;99.90;;;;;;5093478;28;20040;-63
2023/08/01 03:40:11;;;;;;;9.13;2.33;;;15.20;99.90;;;;;;5093682;28;20047;-63
2023/08/01 03:42:37;;;;;;;6.40;1.88;;;15.10;99.90;;;;;;5093730;28;20036;-63
2023/08/01 03:45:05;;;;;;;8.73;2.17;;;15.20;99.90;;;;;;5092682;28;20035;-63
2023/08/01 03:47:30;;;;;;;4.53;1.40;;;15.10;99.90;;;;;;5093663;28;20044;-63
2023/08/01 03:49:56;;;;;;;10.02;2.58;;;15.10;99.90;;;;;;5109947;27;20397;-63
2023/08/01 03:52:22;;;;;;;8.18;2.20;;;15.10;99.90;;;;;;5090243;28;20056;-63
2023/08/01 03:54:48;;;;;;;10.85;2.30;;;15.20;99.90;;;;;;5093202;28;20131;-63
2023/08/01 03:57:14;;;;;;;6.25;1.92;;;15.10;99.90;;;;;;5109543;28;20036;-63
2023/08/01 03:59:40;;;;;;;5.95;1.70;;;15.10;99.90;;;;;;5092179;28;20083;-63
2023/08/01 04:02:05;;;;;;;6.22;1.83;;;15.10;99.90;;;;;;5093759;28;20075;-63
2023/08/01 04:04:31;;;;;;;8.18;2.05;;;15.10;99.90;;;;;;5126166;27;20040;-63
2023/08/01 04:06:57;;;;;;;9.23;2.42;;;15.10;99.90;;;;;;5125430;27;20081;-63
2023/08/01 04:09:23;;;;;;;6.47;2.05;;;15.10;99.90;;;;;;5093614;28;20040;-63
2023/08/01 04:11:48;;;;;;;6.55;1.92;;;15.00;99.90;;;;;;5074864;28;20117;-62
2023/08/01 04:14:14;;;;;;;7.53;2.03;;;15.10;99.90;;;;;;5091261;28;20072;-63
2023/08/01 04:16:40;;;;;;;6.20;1.63;;;15.10;99.90;;;;;;5092596;28;20039;-63
2023/08/01 04:19:05;;;;;;;8.80;2.70;;;15.10;99.90;;;;;;5089908;28;20105;-63
2023/08/01 04:21:31;;;;;;;10.88;2.42;;;15.10;99.90;;;;;;5091022;28;20086;-63
2023/08/01 04:23:57;;;;;;;9.55;2.38;;;15.10;99.90;;;;;;5093041;28;20047;-63
2023/08/01 04:26:23;;;;;;;9.68;2.15;;;15.10;99.90;;;;;;5108695;28;20075;-63
2023/08/01 04:28:49;;;;;;;7.07;1.80;;;15.20;99.90;;;;;;5090296;28;20495;-63
2023/08/01 04:31:15;;;;;;;9.27;2.20;;;15.10;99.90;;;;;;5092958;28;20110;-63
2023/08/01 04:33:40;;;;;;;5.57;2.05;;;15.20;99.90;;;;;;5092483;28;20036;-63
2023/08/01 04:36:06;;;;;;;7.10;2.50;;;15.30;99.90;;;;;;5091056;28;20055;-63
2023/08/01 04:38:32;;;;;;;8.52;1.88;;;15.30;99.90;;;;;;5092830;28;20039;-63
2023/08/01 04:40:57;;;;;;;10.63;2.28;;;15.30;99.90;;;;;;5091226;28;20040;-63
2023/08/01 04:43:23;;;;;;;7.45;2.13;;;15.40;99.90;;;;;;5090822;28;20401;-63
2023/08/01 04:45:49;;;;;;;6.63;2.55;;;15.40;99.90;;;;;;5091164;28;20542;-63
2023/08/01 04:48:14;;;;;;;8.95;2.30;;;15.40;99.90;;;;;;5091740;28;20040;-63
2023/08/01 04:50:40;;;;;;;7.80;2.25;;;15.40;99.90;;;;;;5124916;27;20094;-63
2023/08/01 04:53:06;;;;;;;6.93;2.58;;;15.40;99.90;;;;;;5125671;27;20047;-62
2023/08/01 04:55:32;;;;;;;8.70;2.80;;;15.40;99.90;;;;;;5091547;28;20040;-62
2023/08/01 04:57:57;;;;;;;7.10;3.00;;;15.40;99.90;;;;;;5092353;28;20075;-63
2023/08/01 05:00:23;;;;;;;7.78;2.53;;;15.40;99.90;;;;;;5091350;28;20075;-63
2023/08/01 05:02:49;;;;;;;9.52;2.80;;;15.40;99.90;;;;;;5089703;28;20040;-63
2023/08/01 05:05:16;;;;;;;7.70;2.60;;;15.40;99.90;;;;;;5091209;28;20035;-63
2023/08/01 05:07:41;;;;;;;7.38;2.50;;;15.40;99.90;;;;;;5090923;28;20043;-63
2023/08/01 05:10:08;;;;;;;6.85;2.88;;;15.40;99.90;;;;;;5090343;28;20499;-63
2023/08/01 05:12:33;;;;;;;9.70;2.80;;;15.40;99.90;;;;;;5091069;28;20036;-63
2023/08/01 05:14:59;;;;;;;9.15;2.55;;;15.30;99.90;;;;;;5092126;28;20530;-63
2023/08/01 05:17:25;;;;;;;8.43;3.20;;;15.30;99.90;;;;;;5107428;28;20082;-63
2023/08/01 05:19:50;;;;;;;7.88;3.42;;;15.40;99.90;;;;;;5090762;28;20039;-63
2023/08/01 05:22:16;;;;;;;10.25;3.35;;;15.40;99.90;;;;;;5091368;28;20099;-63
2023/08/01 05:24:41;;;;;;;9.75;3.67;;;15.40;99.90;;;;;;5106784;28;20122;-63
2023/08/01 05:27:07;;;;;;;6.72;2.72;;;15.50;99.90;;;;;;5092344;28;20400;-63
2023/08/01 05:29:33;;;;;;;9.90;3.20;;;15.50;99.90;;;;;;5091755;28;20147;-63
2023/08/01 05:31:59;;;;;;;10.52;3.78;;;15.50;99.90;;;;;;5089967;28;20044;-63
2023/08/01 05:34:24;;;;;;;7.55;3.53;;;15.50;99.90;;;;;;5092438;28;20496;-63
2023/08/01 05:36:50;;;;;;;8.48;2.90;;;15.60;99.90;;;;;;5090606;28;20036;-63
2023/08/01 05:39:16;;;;;;;8.43;2.50;;;15.50;99.90;;;;;;5072296;28;20047;-63
2023/08/01 05:41:43;;;;;;;8.38;2.47;;;15.50;99.90;;;;;;5090291;28;20044;-63
2023/08/01 05:44:09;;;;;;;8.45;2.70;;;15.50;99.90;;;;;;5090821;28;20047;-63
2023/08/01 05:46:34;;;;;;;8.40;2.80;;;15.50;99.90;;;;;;5091099;28;20044;-63
2023/08/01 05:49:00;;;;;;;9.23;2.80;;;15.60;99.90;;;;;;5091551;28;20043;-63
2023/08/01 05:51:26;;;;;;;11.98;3.55;;;15.60;99.90;;;;;;5089655;28;20059;-63
2023/08/01 05:53:52;;;;;;;8.57;2.00;;;15.50;99.90;;;;;;5090565;28;20048;-63
2023/08/01 05:56:17;;;;;;;8.02;2.20;;;15.60;99.90;;;;;;5091992;28;20561;-63
2023/08/01 05:58:43;;;;;;;11.52;2.78;;;15.50;99.90;;;;;;5093076;28;20690;-63
2023/08/01 06:01:11;;;;;;;7.53;2.25;;;15.40;99.90;;;;;;5095766;28;20511;-64
2023/08/01 06:03:37;;;;;;;6.55;1.52;;;15.40;99.90;;;;;;5094633;28;20051;-64
2023/08/01 06:06:03;;;;;;;6.15;1.60;;;15.40;99.90;;;;;;5089587;28;20102;-64
2023/08/01 06:08:29;;;;;;;8.00;1.65;;;15.40;99.90;;;;;;5075241;28;20094;-64
2023/08/01 06:10:55;;;;;;;9.52;1.92;;;15.40;99.90;;;;;;5083164;28;20035;-64
2023/08/01 06:13:21;;;;;;;5.82;1.50;;;15.40;99.90;;;;;;5093636;28;20131;-64
2023/08/01 06:15:47;;;;;;;8.80;1.65;;;15.50;99.90;;;;;;5127918;27;20051;-63
2023/08/01 06:18:12;;;;;;;6.78;1.98;;;15.50;99.90;;;;;;5086377;28;20044;-64
2023/08/01 06:20:39;;;;;;;5.78;1.30;;;15.60;99.90;;;;;;5091406;28;20039;-64
2023/08/01 06:23:05;;;;;;;7.28;1.33;;;15.70;99.90;;;;;;5082087;28;20047;-63
2023/08/01 06:25:30;;;;;;;4.80;1.48;;;15.70;99.90;;;;;;5082698;28;20043;-63
2023/08/01 06:27:56;;;;;;;7.72;2.20;;;15.70;99.90;;;;;;5083828;28;20100;-64
2023/08/01 06:30:22;;;;;;;11.57;2.13;;;15.70;99.90;;;;;;5085311;28;20032;-63
2023/08/01 06:32:47;;;;;;;6.13;1.95;;;15.80;99.90;;;;;;5093297;28;20130;-63
2023/08/01 06:35:13;;;;;;;5.43;1.80;;;15.90;99.90;;;;;;5094487;28;20032;-63
2023/08/01 06:37:39;;;;;;;6.22;1.67;;;15.90;99.90;;;;;;5127935;27;20541;-64
2023/08/01 06:40:06;;;;;;;6.55;1.95;;;15.80;99.90;;;;;;5093678;28;20115;-64
2023/08/01 06:42:32;;;;;;;11.55;2.25;;;15.90;99.90;;;;;;5080661;28;20532;-64
2023/08/01 06:44:57;;;;;;;7.15;1.65;;;15.90;99.90;;;;;;5074583;28;20040;-65
2023/08/01 06:47:23;;;;;;;6.43;1.92;;;15.80;99.90;;;;;;5119863;27;20040;-65
2023/08/01 06:49:49;;;;;;;6.78;1.65;;;15.80;99.90;;;;;;5084934;28;20040;-65
2023/08/01 06:52:14;;;;;;;5.50;1.70;;;15.70;99.90;;;;;;5091813;28;20093;-64
2023/08/01 06:54:40;;;;;;;7.88;1.83;;;15.70;99.90;;;;;;5089386;28;20043;-64
2023/08/01 06:57:09;;;;;;;9.60;1.80;;;15.70;99.90;;;;;;5091860;28;20119;-64
2023/08/01 06:59:34;;;;;;;6.47;1.60;;;15.70;99.90;;;;;;5089147;28;20043;-64
2023/08/01 07:02:01;;;;;;;14.38;2.63;;;15.70;99.90;;;;;;5084437;28;20697;-64
2023/08/01 07:04:26;;;;;;;7.88;1.80;;;15.70;99.90;;;;;;5090864;28;20048;-64
2023/08/01 07:06:52;;;;;;;6.35;1.70;;;15.70;99.90;;;;;;5090158;28;20052;-65
2023/08/01 07:09:18;;;;;;;6.97;2.28;;;15.70;99.90;;;;;;5090376;28;20468;-64
2023/08/01 07:11:43;;;;;;;7.63;2.03;;;15.70;99.90;;;;;;5090021;28;20417;-65
2023/08/01 07:14:09;;;;;;;9.50;1.92;;;15.70;99.90;;;;;;5089136;28;20059;-64
2023/08/01 07:16:35;;;;;;;9.00;2.15;;;15.70;99.90;;;;;;5081913;28;20042;-64
2023/08/01 07:19:01;;;;;;;8.60;2.20;;;15.80;99.90;;;;;;5089702;28;20028;-65
2023/08/01 07:21:27;;;;;;;9.82;2.22;;;15.70;99.90;;;;;;5069712;28;20072;-65
2023/08/01 07:23:52;;;;;;;11.98;3.15;;;15.80;99.90;;;;;;5088315;28;20074;-65
2023/08/01 07:26:18;;;;;;;9.85;2.60;;;16.00;99.90;;;;;;5091031;28;20484;-65
2023/08/01 07:28:44;;;;;;;5.68;1.85;;;16.10;99.90;;;;;;5121737;27;20593;-65
2023/08/01 07:31:09;;;;;;;7.38;2.58;;;16.30;99.90;;;;;;5090285;28;20118;-65
2023/08/01 07:33:35;;;;;;;6.78;1.77;;;16.40;99.90;;;;;;5085226;28;20083;-65
2023/08/01 07:36:01;;;;;;;9.70;2.30;;;16.50;99.90;;;;;;5073384;28;20127;-65
2023/08/01 07:38:27;;;;;;;9.82;2.95;;;16.60;99.90;;;;;;5071831;28;20101;-65
2023/08/01 07:40:55;;;;;;;10.07;2.25;;;16.60;99.90;;;;;;5077476;28;20039;-65
2023/08/01 07:43:21;;;;;;;7.15;2.08;;;16.60;99.90;;;;;;5089112;28;20044;-65
2023/08/01 07:45:50;;;;;;;11.18;3.95;;;16.50;99.90;;;;;;5072163;28;20051;-65
2023/08/01 07:48:16;;;;;;;9.05;2.72;;;16.40;99.90;;;;;;5091539;28;20392;-66
2023/08/01 07:50:41;;;;;;;10.77;2.75;;;16.40;99.90;;;;;;5072728;28;20156;-65
2023/08/01 07:53:07;;;;;;;8.07;2.20;;;16.30;99.90;;;;;;5088918;28;20079;-66
2023/08/01 07:55:36;;;;;;;6.82;1.85;;;16.20;99.90;;;;;;5071266;28;20042;-65
2023/08/01 07:58:02;;;;;;;4.55;1.35;;;16.00;99.90;;;;;;5090165;28;20044;-64
2023/08/01 08:00:27;;;;;;;6.30;2.00;;;15.90;99.90;;;;;;5089677;28;20377;-65
2023/08/01 08:02:54;;;;;;;5.68;2.17;;;15.70;99.90;;;;;;5089607;28;20126;-66
2023/08/01 08:05:19;;;;;;;7.65;1.92;;;15.60;99.90;;;;;;5088856;28;20079;-65
2023/08/01 08:07:45;;;;;;;8.65;2.33;;;15.60;99.90;;;;;;5090251;28;20721;-64
2023/08/01 08:10:11;;;;;;;7.00;2.00;;;15.60;99.90;;;;;;5085619;28;20038;-63
2023/08/01 08:12:36;;;;;;;6.35;2.50;;;15.50;99.90;;;;;;5073619;28;20036;-64
2023/08/01 08:15:02;;;;;;;7.78;2.65;;;15.50;99.90;;;;;;5086201;28;20039;-64
2023/08/01 08:17:28;;;;;;;9.13;2.75;;;15.50;99.90;;;;;;5079794;28;20133;-65
2023/08/01 08:19:54;;;;;;;10.88;3.25;;;15.60;99.90;;;;;;5086145;28;20519;-65
2023/08/01 08:22:19;;;;;;;7.03;3.20;;;15.70;99.90;;;;;;5120946;27;20059;-65
2023/08/01 08:24:45;;;;;;;11.15;2.95;;;15.90;99.90;;;;;;5088723;28;20107;-65
2023/08/01 08:27:11;;;;;;;9.98;2.53;;;16.20;99.90;;;;;;5091187;28;20423;-65
2023/08/01 08:29:36;;;;;;;11.27;2.78;;;16.20;99.90;;;;;;5088120;28;20071;-65
2023/08/01 08:32:02;;;;;;;9.45;2.63;;;16.30;99.90;;;;;;5122893;27;20039;-66
2023/08/01 08:34:28;;;;;;;11.93;3.10;;;16.20;99.90;;;;;;5082738;28;20036;-65
2023/08/01 08:36:54;;;;;;;7.80;2.47;;;16.30;99.90;;;;;;5123140;27;20366;-65
2023/08/01 08:39:19;;;;;;;6.75;2.00;;;16.40;99.90;;;;;;5088915;28;20069;-65
2023/08/01 08:41:48;;;;;;;7.03;2.80;;;16.50;99.90;;;;;;5087756;28;20119;-65
2023/08/01 08:44:20;;;;;;;7.43;1.75;;;16.50;99.90;;;;;;5072113;28;20078;-65
2023/08/01 08:46:53;;;;;;;5.50;1.00;;;16.50;99.90;;;;;;5073364;28;20048;-65
2023/08/01 08:49:26;;;;;;;5.25;1.52;;;16.60;99.90;;;;;;5086735;28;20044;-65
2023/08/01 08:51:54;;;;;;;4.68;1.20;;;16.50;99.90;;;;;;5086559;28;20052;-65
2023/08/01 08:54:20;;;;;;;5.45;1.30;;;16.50;99.90;;;;;;5102859;28;20042;-65
2023/08/01 08:56:46;;;;;;;5.47;1.55;;;16.50;99.90;;;;;;5108804;28;20384;-65
2023/08/01 08:59:12;;;;;;;4.22;1.30;;;16.60;99.90;;;;;;5093186;28;20053;-65
2023/08/01 09:01:39;;;;;;;4.75;1.58;;;16.70;99.90;;;;;;5087954;28;20106;-65
2023/08/01 09:04:06;;;;;;;5.50;1.80;;;16.70;99.90;;;;;;5088654;28;20048;-64
2023/08/01 09:06:43;;;;;;;7.95;2.25;;;16.80;99.90;;;;;;5089923;28;20040;-64
2023/08/01 09:09:11;;;;;;;8.10;2.00;;;16.80;99.90;;;;;;5082238;28;20052;-64
2023/08/01 09:11:48;;;;;;;5.57;1.90;;;16.80;99.90;;;;;;5089308;28;20056;-64
2023/08/01 09:14:14;;;;;;;10.13;2.55;;;17.00;99.90;;;;;;5069695;28;20036;-64
2023/08/01 09:16:42;;;;;;;6.20;1.85;;;17.10;99.90;;;;;;5085833;28;20036;-64
2023/08/01 09:19:08;;;;;;;8.40;2.53;;;17.20;99.90;;;;;;5088478;28;20072;-66
2023/08/01 09:21:35;;;;;;;7.47;2.05;;;17.20;99.90;;;;;;5087154;28;20052;-64
2023/08/01 09:24:20;;;;;;;7.45;2.53;;;17.10;99.90;;;;;;5090533;28;20111;-65
2023/08/01 09:26:48;;;;;;;9.15;3.10;;;17.00;99.90;;;;;;5107526;28;20102;-66
2023/08/01 09:29:16;;;;;;;6.05;1.85;;;16.90;99.90;;;;;;5070413;28;20127;-67
2023/08/01 09:31:43;;;;;;;8.38;1.95;;;16.90;99.90;;;;;;5103926;28;20543;-62
2023/08/01 09:34:23;;;;;;;5.47;1.92;;;16.90;99.90;;;;;;5076378;28;20037;-62
2023/08/01 09:36:49;;;;;;;15.13;2.55;;;17.10;99.90;;;;;;5078520;28;20131;-63
2023/08/01 09:39:20;;;;;;;5.18;2.10;;;17.10;99.90;;;;;;5096816;28;20042;-63
2023/08/01 09:41:56;;;;;;;6.28;2.00;;;17.20;99.90;;;;;;5088818;28;20093;-65
2023/08/01 09:44:22;;;;;;;12.23;2.47;;;17.30;99.90;;;;;;5084545;28;20040;-64
2023/08/01 09:47:04;;;;;;;7.68;2.20;;;17.40;99.90;;;;;;5096544;28;20105;-64
2023/08/01 09:49:31;;;;;;;7.28;2.00;;;17.50;99.90;;;;;;5077484;28;20101;-64
2023/08/01 09:51:58;;;;;;;5.15;1.70;;;17.50;99.90;;;;;;5096606;28;20039;-64
2023/08/01 09:54:25;;;;;;;6.95;1.70;;;17.50;99.90;;;;;;5083525;28;20033;-65
2023/08/01 09:56:52;;;;;;;7.22;1.83;;;17.60;99.90;;;;;;5077232;28;20040;-65
2023/08/01 09:59:25;;;;;;;7.82;2.20;;;17.60;99.90;;;;;;5093811;28;20050;-65
2023/08/01 10:01:53;;;;;;;8.35;2.17;;;17.60;99.90;;;;;;5084523;28;20043;-65
2023/08/01 10:04:22;;;;;;;7.60;2.00;;;17.70;99.90;;;;;;5129127;27;20048;-65
2023/08/01 10:06:55;;;;;;;7.88;2.40;;;17.80;99.90;;;;;;5094150;28;20049;-65
2023/08/01 10:09:21;;;;;;;11.40;2.10;;;17.90;99.90;;;;;;5093125;28;20489;-65
2023/08/01 10:11:49;;;;;;;6.38;2.33;;;18.10;99.90;;;;;;5127585;27;20051;-65
2023/08/01 10:14:16;;;;;;;10.35;2.10;;;18.30;99.90;;;;;;5077572;28;20081;-65
2023/08/01 10:16:42;;;;;;;7.10;1.73;;;18.60;99.90;;;;;;5095669;28;20124;-65
2023/08/01 10:19:11;;;;;;;8.63;1.85;;;18.70;99.90;;;;;;5097148;28;20062;-66
2023/08/01 10:21:39;;;;;;;8.82;2.40;;;18.70;99.90;;;;;;5089654;28;20037;-65
2023/08/01 10:24:06;;;;;;;9.48;2.10;;;18.60;99.90;;;;;;5079833;28;20484;-65
2023/08/01 10:26:32;;;;;;;7.70;1.77;;;18.60;99.90;;;;;;5093357;28;20055;-65
2023/08/01 10:28:59;;;;;;;5.72;1.80;;;18.50;99.90;;;;;;5093274;28;20047;-64
2023/08/01 10:31:25;;;;;;;10.15;2.22;;;18.50;99.90;;;;;;5087759;28;20401;-64
2023/08/01 10:33:52;;;;;;;8.85;2.28;;;18.50;99.90;;;;;;5083772;28;20432;-64
2023/08/01 10:36:29;;;;;;;6.15;1.90;;;18.60;99.90;;;;;;5095227;28;20043;-64
2023/08/01 10:39:00;;;;;;;8.80;2.22;;;18.70;99.90;;;;;;5075440;28;20508;-63
2023/08/01 10:41:26;;;;;;;6.55;1.73;;;18.70;99.90;;;;;;5092683;28;20454;-63
2023/08/01 10:43:51;;;;;;;5.28;1.70;;;18.80;99.90;;;;;;5092684;28;20052;-63
2023/08/01 10:46:17;;;;;;;7.18;2.22;;;18.90;99.90;;;;;;5078489;28;20051;-63
2023/08/01 10:48:53;;;;;;;5.85;1.70;;;18.90;99.90;;;;;;5093982;28;20044;-63
2023/08/01 10:51:19;;;;;;;6.07;1.60;;;18.70;99.90;;;;;;5094796;28;20048;-63
2023/08/01 10:53:45;;;;;;;7.97;2.00;;;18.50;99.90;;;;;;5086817;28;20039;-62
2023/08/01 10:56:20;;;;;;;5.95;1.73;;;18.40;99.90;;;;;;5081198;28;20028;-63
2023/08/01 10:58:47;;;;;;;7.10;1.60;;;18.30;99.90;;;;;;5127060;27;20443;-63
2023/08/01 11:01:13;;;;;;;6.05;1.95;;;18.20;99.90;;;;;;5091989;28;20058;-63
2023/08/01 11:03:41;;;;;;;6.97;1.88;;;18.20;99.90;;;;;;5093019;28;20044;-63
2023/08/01 11:06:07;;;;;;;6.25;1.48;;;18.30;99.90;;;;;;5122511;27;20123;-63
2023/08/01 11:08:40;;;;;;;9.48;2.08;;;18.40;99.90;;;;;;5091283;28;20122;-62
2023/08/01 11:11:10;;;;;;;12.23;2.28;;;18.60;99.90;;;;;;5078532;28;20068;-62
2023/08/01 11:13:36;;;;;;;6.13;1.85;;;18.50;99.90;;;;;;5084826;28;20081;-62
2023/08/01 11:16:03;;;;;;;6.68;1.40;;;18.60;99.90;;;;;;5075015;28;20492;-61
2023/08/01 11:18:30;;;;;;;5.88;1.70;;;18.60;99.90;;;;;;5093929;28;20114;-62
2023/08/01 11:20:56;;;;;;;6.95;1.60;;;18.60;99.90;;;;;;5091100;28;20069;-62
2023/08/01 11:23:29;;;;;;;4.75;1.10;;;18.60;99.90;;;;;;5092508;28;20048;-62
2023/08/01 11:25:55;;;;;;;5.28;1.48;;;18.60;99.90;;;;;;5092955;28;20495;-62
2023/08/01 11:28:23;;;;;;;5.30;1.80;;;18.50;99.90;;;;;;5094344;28;20485;-62
2023/08/01 11:30:49;;;;;;;6.82;1.30;;;18.50;99.90;;;;;;5092632;28;20043;-62
2023/08/01 11:33:15;;;;;;;5.55;1.98;;;18.30;99.90;;;;;;5094335;28;20051;-62
2023/08/01 11:35:41;;;;;;;7.97;2.13;;;18.30;99.90;;;;;;5093217;28;20032;-62
2023/08/01 11:38:07;;;;;;;8.52;2.17;;;18.30;99.90;;;;;;5093215;28;20484;-62
2023/08/01 11:40:34;;;;;;;4.88;1.80;;;18.40;99.90;;;;;;5094097;28;20423;-62
2023/08/01 11:43:00;;;;;;;8.50;2.75;;;18.50;99.90;;;;;;5090141;28;20079;-62
2023/08/01 11:45:26;;;;;;;5.47;1.90;;;18.50;99.90;;;;;;5072896;28;20478;-62
2023/08/01 11:47:51;;;;;;;6.68;2.22;;;18.40;99.90;;;;;;5081059;28;20492;-62
2023/08/01 11:50:23;;;;;;;7.70;2.50;;;18.40;99.90;;;;;;5092968;28;20028;-62
2023/08/01 11:52:48;;;;;;;7.72;2.42;;;18.50;99.90;;;;;;5093395;28;20512;-61
2023/08/01 11:55:20;;;;;;;6.07;2.17;;;18.60;99.90;;;;;;5088578;28;20036;-62
2023/08/01 11:57:53;;;;;;;8.75;2.20;;;18.80;99.90;;;;;;5054253;28;20543;-62
2023/08/01 12:00:27;;;;;;;6.30;2.22;;;18.90;99.90;;;;;;5072615;28;20576;-62
2023/08/01 12:03:22;;;;;;;9.60;2.30;;;19.00;99.90;;;;;;5073210;28;20040;-62
2023/08/01 12:05:48;;;;;;;5.55;1.98;;;19.00;99.90;;;;;;5063170;28;20438;-62
2023/08/01 12:08:15;;;;;;;7.07;1.88;;;18.80;99.90;;;;;;5078531;28;20123;-62
2023/08/01 12:10:44;;;;;;;10.32;2.50;;;18.70;99.90;;;;;;5093168;28;20385;-62
2023/08/01 12:13:21;;;;;;;5.43;1.90;;;18.60;99.90;;;;;;5074726;28;20040;-62
2023/08/01 12:15:50;;;;;;;7.47;2.85;;;18.70;99.90;;;;;;5090017;28;20105;-62
2023/08/01 12:18:24;;;;;;;6.18;2.10;;;18.70;99.90;;;;;;5091522;28;20052;-62
2023/08/01 12:20:50;;;;;;;7.47;2.35;;;18.80;99.90;;;;;;5091565;28;20048;-62
2023/08/01 12:23:16;;;;;;;9.48;2.80;;;18.90;99.90;;;;;;5055950;28;20110;-62
2023/08/01 12:25:41;;;;;;;13.07;2.95;;;19.00;99.90;;;;;;5073885;28;20036;-62
2023/08/01 12:28:07;;;;;;;6.13;1.92;;;18.90;99.90;;;;;;5085159;28;20044;-62
2023/08/01 12:30:33;;;;;;;6.40;1.67;;;18.80;99.90;;;;;;5093116;28;20393;-62
2023/08/01 12:32:59;;;;;;;9.60;2.50;;;18.70;99.90;;;;;;5092157;28;20036;-62
2023/08/01 12:35:25;;;;;;;6.78;2.03;;;18.70;99.90;;;;;;5091861;28;20044;-62
2023/08/01 12:37:52;;;;;;;8.18;2.70;;;18.90;99.90;;;;;;5086629;28;20137;-61
2023/08/01 12:40:18;;;;;;;7.57;2.35;;;19.00;99.90;;;;;;5090072;28;20036;-62